Time;durP1;ratioP1;P1;durP2;ratioP2;P2;SDS_P1;SDS_P2;PMS_P1;PMS_P2;Temp;Humidity;BMP_temperature;BMP_pressure;BME280_temperature;BME280_humidity;BME280_pressure;Samples;Min_cycle;Max_cycle;Signal;HPM_P1;HPM_P2
2021/09/23 00:00:28;;;;;;;22.33;13.13;;;15.30;68.50;;;;;;4974199;28;20419;-89
2021/09/23 00:05:22;;;;;;;26.40;12.95;;;15.00;70.20;;;;;;4975164;28;20186;-89
2021/09/23 00:07:51;;;;;;;31.00;12.88;;;15.00;70.60;;;;;;4974642;28;20554;-89
2021/09/23 00:10:20;;;;;;;21.30;13.60;;;15.20;70.40;;;;;;4974836;28;20290;-89
2021/09/23 00:12:47;;;;;;;29.33;13.95;;;15.20;70.10;;;;;;4977079;28;20196;-89
2021/09/23 00:15:15;;;;;;;33.28;15.75;;;15.10;70.20;;;;;;4976416;28;20184;-89
2021/09/23 00:17:47;;;;;;;20.08;14.65;;;15.10;70.70;;;;;;4975652;28;20218;-89
2021/09/23 00:20:23;;;;;;;22.50;13.57;;;14.90;71.10;;;;;;4977753;28;20238;-89
2021/09/23 00:22:49;;;;;;;29.77;15.98;;;14.90;71.30;;;;;;4975543;28;20222;-89
2021/09/23 00:25:16;;;;;;;25.10;14.80;;;15.00;71.20;;;;;;4976831;28;20180;-89
2021/09/23 00:27:42;;;;;;;24.73;14.35;;;15.10;71.20;;;;;;4975144;28;20270;-89
2021/09/23 00:30:09;;;;;;;25.83;16.63;;;15.20;71.10;;;;;;4975128;28;20662;-89
2021/09/23 00:32:36;;;;;;;26.15;16.65;;;15.30;71.00;;;;;;4974698;28;20290;-89
2021/09/23 00:35:02;;;;;;;24.92;16.10;;;15.30;70.70;;;;;;4975534;28;20194;-89
2021/09/23 00:37:28;;;;;;;27.33;15.20;;;15.30;70.50;;;;;;4976622;28;20179;-89
2021/09/23 00:39:54;;;;;;;22.97;15.20;;;15.30;70.40;;;;;;4977756;28;20205;-88
2021/09/23 00:42:20;;;;;;;24.10;16.70;;;15.30;70.40;;;;;;4976886;28;20215;-89
2021/09/23 00:45:00;;;;;;;28.10;15.60;;;15.30;70.40;;;;;;4978201;28;20468;-89
2021/09/23 00:47:26;;;;;;;26.10;16.67;;;15.30;70.30;;;;;;4977327;28;20206;-89
2021/09/23 00:49:53;;;;;;;27.48;15.38;;;15.30;70.10;;;;;;4977967;28;20226;-89
2021/09/23 00:52:19;;;;;;;33.67;17.15;;;15.20;70.00;;;;;;4976872;28;20215;-89
2021/09/23 00:54:46;;;;;;;26.23;14.95;;;15.20;70.00;;;;;;4977051;28;20184;-89
2021/09/23 00:57:17;;;;;;;27.33;15.05;;;15.10;70.10;;;;;;4961281;28;20215;-88
2021/09/23 00:59:46;;;;;;;24.45;15.05;;;15.00;70.30;;;;;;4977028;28;20187;-89
2021/09/23 01:02:12;;;;;;;26.08;15.20;;;14.90;70.70;;;;;;4976353;28;20207;-89
2021/09/23 01:04:44;;;;;;;22.00;14.30;;;14.90;70.90;;;;;;4976500;28;20191;-89
2021/09/23 01:07:15;;;;;;;25.65;16.20;;;14.90;70.90;;;;;;4976879;28;20183;-89
2021/09/23 01:10:07;;;;;;;25.02;15.88;;;15.00;70.80;;;;;;4977176;28;20564;-89
2021/09/23 01:12:34;;;;;;;30.55;16.35;;;14.90;70.80;;;;;;4972564;28;20211;-88
2021/09/23 01:15:00;;;;;;;29.08;16.33;;;14.80;71.10;;;;;;4976606;28;20184;-88
2021/09/23 01:17:27;;;;;;;29.23;16.33;;;14.70;71.60;;;;;;4976285;28;20180;-88
2021/09/23 01:19:52;;;;;;;24.27;15.50;;;14.70;72.00;;;;;;4976412;28;20279;-88
2021/09/23 01:22:18;;;;;;;25.73;15.50;;;14.70;72.10;;;;;;4976272;28;20370;-89
2021/09/23 01:24:44;;;;;;;26.15;17.33;;;14.70;72.10;;;;;;4976225;28;20198;-88
2021/09/23 01:27:11;;;;;;;22.10;14.10;;;14.60;71.90;;;;;;4976923;28;20691;-88
2021/09/23 01:29:38;;;;;;;24.30;16.02;;;14.60;72.30;;;;;;4976545;28;20450;-88
2021/09/23 01:32:05;;;;;;;26.05;16.58;;;14.50;72.60;;;;;;4975548;28;20316;-88
2021/09/23 01:34:39;;;;;;;27.63;16.23;;;14.60;72.70;;;;;;4983794;28;20180;-88
2021/09/23 01:37:05;;;;;;;24.42;15.30;;;14.60;72.70;;;;;;4978485;28;20196;-89
2021/09/23 01:39:31;;;;;;;27.90;17.20;;;14.70;72.70;;;;;;4977499;28;20603;-89
2021/09/23 01:41:57;;;;;;;29.23;15.53;;;14.70;72.30;;;;;;4959477;28;20307;-89
2021/09/23 01:44:23;;;;;;;26.47;16.43;;;14.70;72.00;;;;;;4975633;28;20459;-89
2021/09/23 01:46:49;;;;;;;25.95;15.23;;;14.80;72.40;;;;;;4976359;28;20425;-89
2021/09/23 01:49:15;;;;;;;32.53;15.70;;;14.70;71.50;;;;;;4975403;28;20699;-89
2021/09/23 01:51:41;;;;;;;27.23;16.37;;;14.60;71.60;;;;;;4977223;28;20446;-89
2021/09/23 01:54:07;;;;;;;24.90;14.93;;;14.60;71.80;;;;;;4975784;28;20204;-88
2021/09/23 01:56:33;;;;;;;29.10;16.90;;;14.60;72.00;;;;;;4975876;28;20585;-88
2021/09/23 01:58:58;;;;;;;32.57;16.97;;;14.60;72.10;;;;;;4976124;28;20183;-89
2021/09/23 02:01:24;;;;;;;28.73;16.80;;;14.60;72.00;;;;;;4959274;28;20478;-89
2021/09/23 02:03:58;;;;;;;27.53;16.87;;;14.50;72.10;;;;;;4975936;28;20231;-88
2021/09/23 02:06:25;;;;;;;25.60;15.77;;;14.40;72.50;;;;;;4976458;28;20514;-88
2021/09/23 02:08:51;;;;;;;27.77;16.92;;;14.40;72.70;;;;;;4980134;28;20184;-88
2021/09/23 02:11:17;;;;;;;31.87;17.80;;;14.40;73.00;;;;;;4977538;28;20191;-88
2021/09/23 02:13:42;;;;;;;28.07;16.10;;;14.50;72.90;;;;;;4975783;28;20275;-88
2021/09/23 02:16:08;;;;;;;26.23;17.47;;;14.50;72.70;;;;;;4975745;28;20647;-88
2021/09/23 02:18:34;;;;;;;32.10;17.10;;;14.50;72.50;;;;;;4976307;28;20192;-88
2021/09/23 02:21:00;;;;;;;27.23;15.67;;;14.50;72.50;;;;;;4975518;28;20422;-88
2021/09/23 02:23:25;;;;;;;24.37;15.43;;;14.50;72.40;;;;;;4962347;28;20526;-88
2021/09/23 02:25:51;;;;;;;36.00;16.97;;;14.50;72.40;;;;;;4956289;28;20187;-88
2021/09/23 02:28:17;;;;;;;33.53;17.27;;;14.40;72.60;;;;;;4957588;28;20510;-88
2021/09/23 02:30:43;;;;;;;29.33;17.00;;;14.30;72.90;;;;;;4956422;28;20177;-89
2021/09/23 02:33:08;;;;;;;32.17;16.63;;;14.30;73.00;;;;;;4956087;28;20479;-89
2021/09/23 02:35:34;;;;;;;33.13;20.80;;;14.20;73.20;;;;;;4958710;28;20180;-90
2021/09/23 02:38:00;;;;;;;29.10;16.70;;;14.20;73.50;;;;;;4975954;28;20249;-89
2021/09/23 02:40:26;;;;;;;30.70;16.77;;;14.20;73.70;;;;;;4976238;28;20183;-88
2021/09/23 02:42:52;;;;;;;34.53;17.13;;;14.20;73.80;;;;;;4974798;28;20482;-89
2021/09/23 02:45:17;;;;;;;24.97;15.83;;;14.30;73.70;;;;;;4975864;28;20495;-89
2021/09/23 02:47:43;;;;;;;33.43;15.90;;;14.40;73.30;;;;;;4974892;28;20172;-89
2021/09/23 02:50:10;;;;;;;27.58;16.42;;;14.30;73.00;;;;;;4975783;28;20294;-89
2021/09/23 02:52:36;;;;;;;26.60;16.42;;;14.30;73.10;;;;;;4974883;28;20204;-89
2021/09/23 02:55:21;;;;;;;26.33;15.70;;;14.30;73.20;;;;;;4975252;28;20180;-89
2021/09/23 02:57:47;;;;;;;26.80;17.40;;;14.40;72.80;;;;;;4975120;28;20510;-89
2021/09/23 03:00:13;;;;;;;28.60;16.57;;;14.30;72.80;;;;;;4976835;28;20275;-89
2021/09/23 03:02:39;;;;;;;24.93;15.73;;;14.20;73.00;;;;;;4975023;28;20634;-89
2021/09/23 03:05:23;;;;;;;27.97;16.50;;;14.10;73.30;;;;;;4975139;28;20801;-89
2021/09/23 03:07:48;;;;;;;27.65;16.48;;;14.20;73.40;;;;;;4975417;28;20172;-89
2021/09/23 03:10:14;;;;;;;29.07;18.47;;;14.40;73.30;;;;;;4974854;28;20186;-89
2021/09/23 03:12:40;;;;;;;28.57;18.30;;;14.40;72.90;;;;;;4974262;28;20676;-89
2021/09/23 03:15:06;;;;;;;33.60;17.57;;;14.30;72.80;;;;;;4976087;28;20188;-89
2021/09/23 03:17:32;;;;;;;27.95;16.67;;;14.20;72.90;;;;;;4974977;28;20187;-89
2021/09/23 03:19:58;;;;;;;25.30;15.87;;;14.20;73.10;;;;;;4974214;28;20186;-88
2021/09/23 03:22:23;;;;;;;31.30;17.67;;;14.30;73.20;;;;;;4974601;28;20306;-88
2021/09/23 03:24:49;;;;;;;32.50;19.80;;;14.10;73.30;;;;;;4974208;28;20260;-89
2021/09/23 03:27:18;;;;;;;33.00;18.83;;;14.00;73.70;;;;;;4974850;28;21014;-89
2021/09/23 03:29:44;;;;;;;31.13;17.63;;;14.00;74.10;;;;;;4975315;28;20187;-89
2021/09/23 03:32:10;;;;;;;33.35;17.02;;;14.00;74.20;;;;;;4974423;28;20191;-89
2021/09/23 03:34:35;;;;;;;32.20;17.37;;;14.20;74.20;;;;;;4975189;28;20263;-89
2021/09/23 03:37:02;;;;;;;39.97;19.07;;;14.10;73.90;;;;;;4974676;28;20275;-89
2021/09/23 03:39:28;;;;;;;28.33;17.30;;;14.20;73.80;;;;;;4974244;28;20184;-88
2021/09/23 03:41:54;;;;;;;30.37;17.17;;;14.10;73.80;;;;;;4974020;28;20215;-89
2021/09/23 03:44:19;;;;;;;28.10;17.73;;;13.90;74.30;;;;;;4974059;28;20447;-89
2021/09/23 03:46:45;;;;;;;33.70;20.10;;;13.90;74.70;;;;;;4975294;28;20894;-89
2021/09/23 03:49:11;;;;;;;33.10;19.47;;;13.90;75.00;;;;;;4975498;28;20167;-89
2021/09/23 03:51:37;;;;;;;46.27;21.30;;;13.90;75.80;;;;;;4974987;28;20450;-88
2021/09/23 03:54:03;;;;;;;33.23;20.57;;;13.90;75.40;;;;;;4978151;28;20204;-88
2021/09/23 03:56:29;;;;;;;32.78;20.40;;;14.00;75.40;;;;;;4975151;28;20678;-89
2021/09/23 03:58:55;;;;;;;38.45;20.95;;;13.90;75.50;;;;;;4978508;28;20191;-89
2021/09/23 04:01:20;;;;;;;36.53;22.67;;;14.00;75.70;;;;;;4981916;28;20204;-89
2021/09/23 04:03:46;;;;;;;36.73;22.30;;;14.10;75.70;;;;;;4974072;28;20922;-89
2021/09/23 04:06:12;;;;;;;37.13;21.50;;;14.20;75.30;;;;;;4975134;28;20495;-89
2021/09/23 04:08:38;;;;;;;31.70;20.70;;;14.30;75.10;;;;;;4975350;28;20180;-89
2021/09/23 04:11:03;;;;;;;37.40;22.30;;;14.20;74.80;;;;;;4975252;28;20418;-89
2021/09/23 04:13:29;;;;;;;44.20;20.77;;;14.10;75.10;;;;;;4981847;28;20195;-89
2021/09/23 04:16:13;;;;;;;43.93;22.60;;;14.20;75.20;;;;;;4982091;28;20214;-89
2021/09/23 04:18:38;;;;;;;38.10;20.83;;;14.30;75.20;;;;;;4982652;28;20458;-88
2021/09/23 04:21:04;;;;;;;38.93;22.93;;;14.30;75.20;;;;;;4982434;28;20184;-89
2021/09/23 04:23:30;;;;;;;34.30;19.83;;;14.30;75.20;;;;;;4968072;28;20548;-88
2021/09/23 04:26:10;;;;;;;39.77;22.10;;;14.30;75.10;;;;;;4963697;28;20427;-88
2021/09/23 04:28:36;;;;;;;36.35;21.95;;;14.30;74.90;;;;;;4963639;28;20635;-88
2021/09/23 04:31:02;;;;;;;42.63;22.83;;;14.30;74.90;;;;;;4962676;28;20180;-88
2021/09/23 04:33:27;;;;;;;37.90;23.77;;;14.20;74.90;;;;;;4961531;28;20444;-89
2021/09/23 04:35:54;;;;;;;49.20;24.50;;;14.30;75.00;;;;;;4967578;28;20179;-89
2021/09/23 04:38:20;;;;;;;42.70;23.42;;;14.20;75.10;;;;;;4982482;28;20175;-89
2021/09/23 04:40:46;;;;;;;41.80;26.25;;;14.10;75.50;;;;;;4982943;28;20326;-89
2021/09/23 04:43:12;;;;;;;40.83;26.40;;;14.00;75.90;;;;;;4981353;28;20234;-88
2021/09/23 04:45:38;;;;;;;43.57;24.80;;;13.90;76.20;;;;;;4983113;28;20438;-88
2021/09/23 04:48:04;;;;;;;46.60;24.87;;;14.00;76.40;;;;;;4981514;28;20329;-88
2021/09/23 04:50:30;;;;;;;40.40;23.55;;;13.90;76.50;;;;;;4982077;28;20194;-89
2021/09/23 04:52:56;;;;;;;43.00;24.43;;;13.90;77.50;;;;;;4983884;28;20731;-89
2021/09/23 04:55:22;;;;;;;42.67;25.63;;;13.90;76.80;;;;;;4984509;28;21051;-89
2021/09/23 04:57:48;;;;;;;49.53;24.33;;;14.00;76.80;;;;;;4984697;28;20179;-89
2021/09/23 05:00:14;;;;;;;46.07;24.97;;;14.00;76.70;;;;;;4983088;28;20430;-89
2021/09/23 05:02:40;;;;;;;49.75;25.92;;;14.20;76.40;;;;;;4983940;28;20603;-89
2021/09/23 05:05:06;;;;;;;41.83;23.70;;;14.10;76.30;;;;;;4986771;28;20238;-89
2021/09/23 05:07:32;;;;;;;45.33;24.98;;;14.20;76.10;;;;;;4985227;28;20245;-89
2021/09/23 05:09:58;;;;;;;48.90;28.30;;;14.20;75.80;;;;;;4987166;28;20179;-89
2021/09/23 05:12:24;;;;;;;54.97;27.93;;;14.20;76.00;;;;;;4983803;28;20208;-89
2021/09/23 05:14:50;;;;;;;49.22;27.83;;;14.10;76.10;;;;;;4985512;28;20180;-89
2021/09/23 05:17:16;;;;;;;45.60;26.95;;;14.00;76.50;;;;;;4986324;28;20199;-89
2021/09/23 05:19:42;;;;;;;52.38;29.15;;;13.90;77.00;;;;;;4983683;28;20180;-89
2021/09/23 05:22:08;;;;;;;53.90;27.73;;;14.00;77.20;;;;;;4980444;28;20219;-89
2021/09/23 05:24:34;;;;;;;46.33;25.60;;;14.10;77.00;;;;;;4962592;28;20447;-89
2021/09/23 05:27:00;;;;;;;50.85;26.42;;;14.20;76.70;;;;;;4963517;28;20427;-89
2021/09/23 05:29:26;;;;;;;44.80;27.50;;;14.30;76.40;;;;;;4963728;28;20177;-90
2021/09/23 05:31:51;;;;;;;46.20;26.70;;;14.40;76.00;;;;;;4962522;28;20184;-90
2021/09/23 05:34:17;;;;;;;48.77;26.30;;;14.30;75.70;;;;;;4968194;28;20204;-90
2021/09/23 05:36:43;;;;;;;43.07;25.77;;;14.30;75.60;;;;;;4969028;28;20181;-90
2021/09/23 05:39:09;;;;;;;50.20;27.93;;;14.30;75.60;;;;;;4970592;28;20621;-90
2021/09/23 05:41:35;;;;;;;49.95;28.77;;;14.20;75.50;;;;;;4967854;28;20247;-89
2021/09/23 05:44:01;;;;;;;50.30;28.70;;;14.20;75.60;;;;;;4967928;28;20216;-90
2021/09/23 05:46:30;;;;;;;51.70;27.53;;;14.20;75.80;;;;;;4967194;28;20169;-91
2021/09/23 05:48:55;;;;;;;48.67;27.10;;;14.10;75.80;;;;;;4954035;28;20477;-90
2021/09/23 05:51:24;;;;;;;42.80;24.57;;;14.00;76.00;;;;;;4971749;28;20209;-91
2021/09/23 05:53:49;;;;;;;44.63;25.85;;;13.90;76.30;;;;;;4972639;28;20208;-91
2021/09/23 05:56:33;;;;;;;39.70;22.57;;;14.10;76.60;;;;;;4980431;28;20176;-95
2021/09/23 05:59:02;;;;;;;42.83;24.73;;;14.20;76.30;;;;;;4978578;28;20204;-94
2021/09/23 06:01:28;;;;;;;36.55;22.95;;;14.30;75.80;;;;;;4977255;28;20284;-94
2021/09/23 06:03:54;;;;;;;38.70;22.20;;;14.40;75.60;;;;;;4974057;28;20260;-94
2021/09/23 06:06:22;;;;;;;39.58;22.50;;;14.50;75.10;;;;;;4967598;28;20524;-93
2021/09/23 06:08:48;;;;;;;39.83;22.50;;;14.70;75.50;;;;;;4975370;28;20185;-94
2021/09/23 06:11:17;;;;;;;35.70;23.60;;;15.00;73.80;;;;;;4967557;28;20180;-94
2021/09/23 06:13:46;;;;;;;40.47;19.77;;;15.30;73.20;;;;;;4960707;28;20464;-93
2021/09/23 06:16:14;;;;;;;36.20;22.67;;;15.40;72.20;;;;;;4960390;28;20180;-93
2021/09/23 06:18:40;;;;;;;42.38;22.92;;;15.50;71.50;;;;;;4961280;28;20230;-92
2021/09/23 06:21:07;;;;;;;31.92;21.40;;;15.70;71.10;;;;;;4961580;28;20197;-93
2021/09/23 06:23:35;;;;;;;38.15;23.85;;;15.70;70.50;;;;;;4961793;28;20192;-93
2021/09/23 06:26:04;;;;;;;34.55;20.73;;;15.60;70.40;;;;;;4963489;28;21007;-93
2021/09/23 06:28:31;;;;;;;32.97;21.65;;;15.50;70.70;;;;;;4945994;29;20180;-93
2021/09/23 06:30:58;;;;;;;42.45;27.33;;;15.50;70.70;;;;;;4962035;28;20193;-93
2021/09/23 06:33:24;;;;;;;33.63;21.95;;;15.50;70.80;;;;;;4963172;28;20215;-93
2021/09/23 06:35:50;;;;;;;36.33;22.87;;;15.50;70.70;;;;;;4961675;28;20185;-93
2021/09/23 06:38:16;;;;;;;42.23;23.93;;;15.40;70.90;;;;;;4963806;28;20181;-93
2021/09/23 06:40:41;;;;;;;43.77;22.67;;;15.20;71.40;;;;;;4962926;28;20203;-92
2021/09/23 06:43:07;;;;;;;42.57;26.63;;;15.20;71.90;;;;;;4961141;28;20502;-93
2021/09/23 06:45:36;;;;;;;41.43;25.77;;;15.20;72.10;;;;;;4960947;28;20514;-92
2021/09/23 06:48:02;;;;;;;44.88;25.15;;;15.20;72.40;;;;;;4945727;29;20428;-92
2021/09/23 06:50:28;;;;;;;39.03;24.40;;;15.20;72.50;;;;;;4960845;28;20248;-93
2021/09/23 06:52:54;;;;;;;47.43;26.53;;;15.30;72.80;;;;;;4970742;28;20208;-92
2021/09/23 06:55:20;;;;;;;38.77;23.53;;;15.20;73.20;;;;;;4973440;28;20424;-92
2021/09/23 06:57:46;;;;;;;55.23;25.27;;;15.30;73.50;;;;;;4973131;28;20425;-92
2021/09/23 07:00:12;;;;;;;46.75;26.63;;;15.40;73.40;;;;;;4972731;28;20488;-92
2021/09/23 07:02:38;;;;;;;51.60;28.40;;;15.40;73.40;;;;;;4975538;28;20227;-92
2021/09/23 07:05:07;;;;;;;41.37;25.80;;;15.40;73.80;;;;;;4974589;28;20211;-92
2021/09/23 07:07:33;;;;;;;46.72;26.38;;;15.50;74.00;;;;;;4971748;28;20408;-92
2021/09/23 07:10:00;;;;;;;45.47;28.80;;;15.40;74.10;;;;;;4966130;28;20547;-92
2021/09/23 07:12:26;;;;;;;51.53;28.25;;;15.40;74.60;;;;;;4985093;28;20207;-93
2021/09/23 07:14:52;;;;;;;47.63;28.37;;;15.40;74.80;;;;;;4983104;28;20198;-92
2021/09/23 07:17:18;;;;;;;48.07;28.07;;;15.40;75.00;;;;;;4982390;28;20438;-92
2021/09/23 07:19:44;;;;;;;44.90;27.87;;;15.50;75.20;;;;;;4984289;28;20283;-92
2021/09/23 07:22:10;;;;;;;43.78;28.58;;;15.60;75.20;;;;;;4983918;28;20203;-93
2021/09/23 07:24:37;;;;;;;56.10;31.75;;;15.70;75.10;;;;;;4984266;28;20206;-93
2021/09/23 07:27:03;;;;;;;52.85;27.17;;;15.70;75.20;;;;;;4984387;28;20187;-93
2021/09/23 07:29:29;;;;;;;46.97;29.27;;;15.90;75.10;;;;;;4981960;28;20179;-92
2021/09/23 07:31:55;;;;;;;48.40;29.50;;;15.90;74.90;;;;;;4982770;28;20195;-93
2021/09/23 07:34:21;;;;;;;51.58;30.00;;;16.00;75.00;;;;;;4981350;28;20204;-92
2021/09/23 07:36:47;;;;;;;47.93;29.20;;;16.00;75.70;;;;;;4979486;28;20610;-93
2021/09/23 07:39:13;;;;;;;44.63;28.60;;;16.10;75.30;;;;;;4979620;28;20180;-92
2021/09/23 07:41:41;;;;;;;50.20;30.23;;;16.30;75.20;;;;;;4980108;28;20687;-93
2021/09/23 07:44:09;;;;;;;42.42;26.90;;;16.20;75.10;;;;;;4980794;28;20215;-93
2021/09/23 07:46:36;;;;;;;48.90;27.42;;;16.40;75.10;;;;;;4978707;28;20535;-93
2021/09/23 07:49:02;;;;;;;49.85;29.92;;;16.60;75.00;;;;;;4978247;28;20176;-93
2021/09/23 07:51:28;;;;;;;45.00;27.30;;;16.70;74.70;;;;;;4978486;28;20183;-92
2021/09/23 07:53:54;;;;;;;50.30;28.17;;;16.80;75.00;;;;;;4978538;28;20277;-92
2021/09/23 07:56:20;;;;;;;49.70;29.57;;;16.80;74.10;;;;;;4978944;28;20275;-92
2021/09/23 07:58:45;;;;;;;48.67;28.53;;;16.90;74.10;;;;;;4978014;28;20423;-92
2021/09/23 08:01:11;;;;;;;47.60;26.03;;;16.90;74.00;;;;;;4975754;28;20764;-92
2021/09/23 08:03:37;;;;;;;48.40;29.10;;;17.00;73.70;;;;;;4975802;28;20207;-92
2021/09/23 08:06:03;;;;;;;46.17;26.77;;;17.00;73.40;;;;;;4976158;28;20187;-93
2021/09/23 08:08:28;;;;;;;43.47;27.57;;;17.00;73.70;;;;;;4976490;28;20551;-93
2021/09/23 08:10:54;;;;;;;53.80;28.40;;;16.90;74.00;;;;;;4978574;28;20482;-92
2021/09/23 08:13:20;;;;;;;44.73;26.40;;;16.90;74.40;;;;;;4975709;28;20305;-92
2021/09/23 08:15:46;;;;;;;46.70;28.17;;;17.10;74.20;;;;;;4976356;28;20478;-92
2021/09/23 08:18:12;;;;;;;42.67;25.33;;;17.10;74.20;;;;;;4977863;28;20194;-93
2021/09/23 08:20:39;;;;;;;39.75;25.95;;;17.10;74.20;;;;;;4976790;28;20486;-93
2021/09/23 08:23:05;;;;;;;47.38;27.02;;;17.20;74.20;;;;;;4977737;28;20311;-93
2021/09/23 08:25:32;;;;;;;40.95;26.50;;;17.30;73.90;;;;;;4976868;28;20183;-93
2021/09/23 08:27:58;;;;;;;41.80;24.98;;;17.40;73.70;;;;;;4977223;28;20662;-93
2021/09/23 08:30:24;;;;;;;35.30;25.80;;;17.50;73.50;;;;;;4978065;28;20186;-93
2021/09/23 08:32:51;;;;;;;44.67;25.23;;;17.50;73.50;;;;;;4976048;28;20203;-93
2021/09/23 08:35:17;;;;;;;50.25;25.60;;;17.50;73.60;;;;;;4977442;28;20506;-92
2021/09/23 08:37:44;;;;;;;32.85;24.15;;;17.50;73.90;;;;;;4976905;28;20210;-93
2021/09/23 08:40:11;;;;;;;38.45;23.42;;;17.50;73.80;;;;;;4978590;28;20180;-93
2021/09/23 08:42:39;;;;;;;37.28;22.38;;;17.40;73.60;;;;;;4977914;28;20561;-93
2021/09/23 08:45:07;;;;;;;38.08;26.08;;;17.40;73.70;;;;;;4976499;28;20214;-93
2021/09/23 08:47:33;;;;;;;40.08;23.67;;;17.50;73.80;;;;;;4976258;28;20187;-93
2021/09/23 08:50:04;;;;;;;36.58;22.38;;;17.70;73.70;;;;;;4976884;28;20176;-93
2021/09/23 08:52:29;;;;;;;31.70;21.50;;;17.80;73.10;;;;;;4976602;28;20226;-93
2021/09/23 08:54:55;;;;;;;44.17;22.07;;;17.80;73.10;;;;;;4977758;28;20647;-92
2021/09/23 08:57:21;;;;;;;35.83;22.33;;;17.70;73.10;;;;;;4978463;28;20176;-92
2021/09/23 08:59:47;;;;;;;35.40;21.83;;;17.70;73.30;;;;;;4982563;28;20184;-93
2021/09/23 09:02:22;;;;;;;37.15;23.30;;;17.70;73.60;;;;;;4985546;28;20306;-92
2021/09/23 09:04:54;;;;;;;39.30;23.90;;;17.80;73.40;;;;;;4986055;28;20187;-93
2021/09/23 09:07:26;;;;;;;40.45;25.73;;;17.70;73.40;;;;;;4985276;28;20172;-93
2021/09/23 09:10:05;;;;;;;41.00;23.42;;;17.70;73.50;;;;;;4982009;28;20172;-93
2021/09/23 09:12:31;;;;;;;36.95;24.00;;;17.90;73.40;;;;;;4983748;28;20302;-93
2021/09/23 09:14:59;;;;;;;34.80;22.10;;;18.00;73.10;;;;;;4983943;28;20184;-93
2021/09/23 09:17:25;;;;;;;36.60;22.75;;;18.30;72.80;;;;;;4981925;28;20187;-93
2021/09/23 09:20:02;;;;;;;33.53;21.77;;;18.40;72.30;;;;;;4983761;28;20192;-93
2021/09/23 09:22:30;;;;;;;33.10;21.52;;;18.40;71.70;;;;;;4981537;28;20222;-93
2021/09/23 09:24:57;;;;;;;30.02;20.88;;;18.40;71.80;;;;;;4980236;28;20234;-93
2021/09/23 09:27:33;;;;;;;34.83;21.92;;;18.50;71.90;;;;;;4982058;28;20172;-93
2021/09/23 09:30:14;;;;;;;33.85;21.70;;;18.60;71.50;;;;;;4980096;28;20176;-93
2021/09/23 09:32:42;;;;;;;29.60;18.05;;;18.90;71.30;;;;;;4979928;28;20203;-93
2021/09/23 09:35:10;;;;;;;32.70;20.73;;;19.00;70.80;;;;;;4979132;28;20219;-93
2021/09/23 09:37:38;;;;;;;27.38;18.98;;;19.10;70.60;;;;;;4978833;28;20274;-93
2021/09/23 09:40:04;;;;;;;33.67;19.73;;;19.10;70.20;;;;;;4979622;28;20726;-93
2021/09/23 09:42:31;;;;;;;36.13;17.63;;;18.90;69.60;;;;;;4979664;28;20223;-93
2021/09/23 09:44:58;;;;;;;26.15;16.95;;;18.70;69.70;;;;;;4982353;28;20203;-93
2021/09/23 09:47:33;;;;;;;29.83;16.48;;;18.70;70.00;;;;;;4982391;28;20654;-93
2021/09/23 09:50:19;;;;;;;21.85;16.33;;;18.70;70.00;;;;;;4981143;28;20183;-93
2021/09/23 09:52:57;;;;;;;25.55;15.88;;;18.80;69.90;;;;;;4980471;28;20215;-93
2021/09/23 09:55:25;;;;;;;32.10;16.80;;;19.00;69.40;;;;;;4980088;28;20183;-93
2021/09/23 09:57:53;;;;;;;27.60;14.30;;;19.00;69.00;;;;;;4981769;28;20191;-93
2021/09/23 10:00:21;;;;;;;24.02;15.10;;;19.00;68.80;;;;;;4948974;28;20529;-93
2021/09/23 10:02:48;;;;;;;25.65;15.70;;;18.80;68.70;;;;;;4980815;28;20597;-93
2021/09/23 10:05:16;;;;;;;25.10;14.50;;;18.90;69.00;;;;;;4981805;28;20263;-93
2021/09/23 10:07:47;;;;;;;24.65;15.02;;;19.10;68.50;;;;;;4981763;28;20191;-92
2021/09/23 10:10:15;;;;;;;21.23;13.10;;;19.20;68.00;;;;;;4978941;28;20176;-93
2021/09/23 10:12:43;;;;;;;25.85;13.40;;;19.20;67.40;;;;;;4980584;28;20602;-92
2021/09/23 10:15:14;;;;;;;20.52;13.68;;;18.90;66.90;;;;;;4980007;28;20198;-93
2021/09/23 10:17:48;;;;;;;19.10;12.80;;;18.90;67.20;;;;;;4979928;28;20234;-93
2021/09/23 10:20:16;;;;;;;20.65;13.10;;;18.90;67.20;;;;;;4978429;28;20183;-92
2021/09/23 10:22:43;;;;;;;19.38;13.18;;;19.10;67.00;;;;;;4980217;28;20258;-92
2021/09/23 10:25:13;;;;;;;18.83;12.88;;;19.20;66.30;;;;;;4980518;28;20179;-92
2021/09/23 10:27:59;;;;;;;17.70;10.40;;;19.30;66.20;;;;;;4978633;28;20242;-93
2021/09/23 10:30:28;;;;;;;19.02;11.65;;;19.40;65.30;;;;;;4979511;28;20176;-93
2021/09/23 10:32:54;;;;;;;22.63;12.77;;;19.70;64.80;;;;;;4981014;28;20204;-93
2021/09/23 10:35:23;;;;;;;14.82;11.35;;;19.80;64.00;;;;;;4981368;28;20612;-93
2021/09/23 10:38:16;;;;;;;25.73;12.70;;;19.80;63.60;;;;;;4980252;28;20184;-93
2021/09/23 10:40:42;;;;;;;21.77;13.20;;;20.00;63.00;;;;;;4977665;28;20652;-93
2021/09/23 10:43:15;;;;;;;19.90;14.73;;;20.00;62.80;;;;;;4982299;28;20286;-93
2021/09/23 10:45:42;;;;;;;26.90;16.15;;;19.80;62.40;;;;;;4965783;28;20286;-93
2021/09/23 10:48:11;;;;;;;24.95;17.52;;;19.70;63.00;;;;;;4983778;28;20271;-94
2021/09/23 10:50:40;;;;;;;39.42;18.40;;;19.80;62.70;;;;;;4987065;28;20643;-95
2021/09/23 10:53:08;;;;;;;26.85;18.25;;;19.80;63.20;;;;;;4991313;28;20210;-94
2021/09/23 10:55:37;;;;;;;20.67;16.92;;;19.60;63.00;;;;;;4990942;28;20199;-95
2021/09/23 10:58:08;;;;;;;31.67;17.58;;;19.80;63.30;;;;;;4988487;28;20219;-95
2021/09/23 11:00:35;;;;;;;23.73;17.75;;;20.00;62.80;;;;;;4988074;28;20183;-94
2021/09/23 11:03:24;;;;;;;24.77;18.98;;;20.20;62.30;;;;;;4987690;28;20216;-95
2021/09/23 11:05:52;;;;;;;23.70;17.35;;;20.30;62.10;;;;;;4990072;28;20316;-94
2021/09/23 11:08:21;;;;;;;24.63;17.20;;;20.30;61.80;;;;;;4993131;28;20187;-94
2021/09/23 11:10:53;;;;;;;17.38;15.50;;;20.30;61.50;;;;;;4986576;28;20195;-94
2021/09/23 11:13:29;;;;;;;22.42;16.80;;;20.10;61.50;;;;;;4986251;28;20207;-94
2021/09/23 11:15:56;;;;;;;20.48;16.35;;;20.10;62.00;;;;;;4985755;28;20243;-94
2021/09/23 11:18:26;;;;;;;19.13;16.05;;;20.30;62.10;;;;;;4989544;28;20180;-95
2021/09/23 11:20:52;;;;;;;27.75;17.95;;;20.30;61.50;;;;;;4990121;28;20188;-95
2021/09/23 11:23:31;;;;;;;24.60;16.45;;;20.10;61.30;;;;;;4973241;28;20311;-94
2021/09/23 11:26:02;;;;;;;21.17;15.23;;;20.00;61.20;;;;;;4989071;28;20168;-94
2021/09/23 11:28:29;;;;;;;16.98;13.50;;;20.10;61.20;;;;;;4987002;28;20192;-95
2021/09/23 11:30:58;;;;;;;26.05;12.32;;;20.50;60.80;;;;;;4988743;28;20183;-95
2021/09/23 11:33:35;;;;;;;;;;;;;;;;;;;;;
2021/09/23 11:36:01;;;;;;;18.02;14.07;;;20.70;59.50;;;;;;4991529;28;20183;-94
2021/09/23 11:38:40;;;;;;;19.70;14.13;;;20.50;58.70;;;;;;4975196;28;20192;-95
2021/09/23 11:41:16;;;;;;;22.45;13.98;;;20.30;59.30;;;;;;4992423;28;20427;-95
2021/09/23 11:43:50;;;;;;;14.30;12.20;;;20.00;59.90;;;;;;4976268;28;20219;-95
2021/09/23 11:46:15;;;;;;;12.27;10.75;;;20.10;61.20;;;;;;4990116;28;20226;-95
2021/09/23 11:48:44;;;;;;;11.67;10.47;;;19.90;61.00;;;;;;4975634;28;20175;-94
2021/09/23 11:51:15;;;;;;;16.70;11.52;;;19.90;60.80;;;;;;4991326;28;20447;-95
2021/09/23 11:53:42;;;;;;;13.88;10.05;;;20.00;60.90;;;;;;4989513;28;20203;-94
2021/09/23 11:56:17;;;;;;;16.60;8.00;;;20.30;60.50;;;;;;4986658;28;20180;-94
2021/09/23 11:58:48;;;;;;;10.93;8.00;;;20.20;60.80;;;;;;4985970;28;20179;-94
2021/09/23 12:01:14;;;;;;;18.48;10.73;;;20.20;60.80;;;;;;4985782;28;20256;-94
2021/09/23 12:03:45;;;;;;;9.80;8.80;;;20.10;60.50;;;;;;4986947;28;20199;-95
2021/09/23 12:06:16;;;;;;;13.38;8.35;;;19.90;60.60;;;;;;4978616;28;20440;-95
2021/09/23 12:08:43;;;;;;;9.63;7.18;;;19.70;60.60;;;;;;4978612;28;20199;-94
2021/09/23 12:11:13;;;;;;;15.27;7.07;;;19.50;60.70;;;;;;4983034;28;20188;-94
2021/09/23 12:13:39;;;;;;;8.40;6.47;;;19.40;61.30;;;;;;4985338;28;20214;-95
2021/09/23 12:16:14;;;;;;;14.50;6.40;;;19.50;61.30;;;;;;4988417;28;20282;-94
2021/09/23 12:18:42;;;;;;;6.93;4.70;;;19.60;60.90;;;;;;4986244;28;20172;-94
2021/09/23 12:21:16;;;;;;;10.75;5.70;;;19.70;61.00;;;;;;4985777;28;20284;-94
2021/09/23 12:23:50;;;;;;;10.70;5.40;;;20.00;61.00;;;;;;4985181;28;20214;-94
2021/09/23 12:26:34;;;;;;;7.82;4.35;;;20.30;60.20;;;;;;4986480;28;20230;-95
2021/09/23 12:29:04;;;;;;;8.45;5.22;;;20.30;59.30;;;;;;4993786;28;20239;-95
2021/09/23 12:32:04;;;;;;;7.20;5.95;;;20.40;58.90;;;;;;4987803;28;20187;-95
2021/09/23 12:34:37;;;;;;;7.93;5.45;;;20.40;58.60;;;;;;4997385;28;20228;-95